sensor_id;sensor_type;location;lat;lon;timestamp;P1;durP1;ratioP1;P2;durP2;ratioP2
42338;SDS011;27993;45.392;10.918;2023-11-21T00:01:11;30.20;;;15.48;;
42338;SDS011;27993;45.392;10.918;2023-11-21T00:03:42;26.13;;;14.63;;
42338;SDS011;27993;45.392;10.918;2023-11-21T00:06:13;25.05;;;12.18;;
42338;SDS011;27993;45.392;10.918;2023-11-21T00:08:44;24.92;;;15.57;;
42338;SDS011;27993;45.392;10.918;2023-11-21T00:11:15;26.53;;;14.90;;
42338;SDS011;27993;45.392;10.918;2023-11-21T00:13:46;25.83;;;14.65;;
42338;SDS011;27993;45.392;10.918;2023-11-21T00:16:17;25.23;;;14.73;;
42338;SDS011;27993;45.392;10.918;2023-11-21T00:18:48;28.02;;;13.93;;
42338;SDS011;27993;45.392;10.918;2023-11-21T00:21:21;22.70;;;13.73;;
42338;SDS011;27993;45.392;10.918;2023-11-21T00:23:52;23.10;;;13.60;;
42338;SDS011;27993;45.392;10.918;2023-11-21T00:26:23;23.58;;;14.10;;
42338;SDS011;27993;45.392;10.918;2023-11-21T00:28:54;25.70;;;14.98;;
42338;SDS011;27993;45.392;10.918;2023-11-21T00:31:25;30.42;;;14.35;;
42338;SDS011;27993;45.392;10.918;2023-11-21T00:33:56;20.73;;;13.43;;
42338;SDS011;27993;45.392;10.918;2023-11-21T00:36:27;25.02;;;14.45;;
42338;SDS011;27993;45.392;10.918;2023-11-21T00:38:58;24.35;;;13.62;;
42338;SDS011;27993;45.392;10.918;2023-11-21T00:41:29;27.08;;;15.88;;
42338;SDS011;27993;45.392;10.918;2023-11-21T00:44:00;26.75;;;14.80;;
42338;SDS011;27993;45.392;10.918;2023-11-21T00:46:31;23.67;;;13.77;;
42338;SDS011;27993;45.392;10.918;2023-11-21T00:49:02;25.37;;;12.33;;
42338;SDS011;27993;45.392;10.918;2023-11-21T00:51:34;21.23;;;14.20;;
42338;SDS011;27993;45.392;10.918;2023-11-21T00:56:36;24.45;;;14.30;;
42338;SDS011;27993;45.392;10.918;2023-11-21T00:59:08;27.05;;;15.20;;
42338;SDS011;27993;45.392;10.918;2023-11-21T01:01:39;26.83;;;16.02;;
42338;SDS011;27993;45.392;10.918;2023-11-21T01:04:10;25.92;;;14.70;;
42338;SDS011;27993;45.392;10.918;2023-11-21T01:06:41;22.33;;;13.77;;
42338;SDS011;27993;45.392;10.918;2023-11-21T01:09:12;19.58;;;13.25;;
42338;SDS011;27993;45.392;10.918;2023-11-21T01:11:44;19.70;;;12.15;;
42338;SDS011;27993;45.392;10.918;2023-11-21T01:14:15;21.87;;;12.13;;
42338;SDS011;27993;45.392;10.918;2023-11-21T01:16:47;18.33;;;11.55;;
42338;SDS011;27993;45.392;10.918;2023-11-21T01:19:19;26.85;;;12.63;;
42338;SDS011;27993;45.392;10.918;2023-11-21T01:21:50;23.93;;;12.20;;
42338;SDS011;27993;45.392;10.918;2023-11-21T01:24:22;22.13;;;13.82;;
42338;SDS011;27993;45.392;10.918;2023-11-21T01:26:53;34.60;;;11.43;;
42338;SDS011;27993;45.392;10.918;2023-11-21T01:29:24;25.43;;;13.40;;
42338;SDS011;27993;45.392;10.918;2023-11-21T01:31:55;21.27;;;13.27;;
42338;SDS011;27993;45.392;10.918;2023-11-21T01:34:27;19.75;;;12.77;;
42338;SDS011;27993;45.392;10.918;2023-11-21T01:36:58;17.40;;;12.85;;
42338;SDS011;27993;45.392;10.918;2023-11-21T01:39:29;24.12;;;12.30;;
42338;SDS011;27993;45.392;10.918;2023-11-21T01:44:32;20.70;;;12.68;;
42338;SDS011;27993;45.392;10.918;2023-11-21T01:47:03;23.12;;;12.75;;
42338;SDS011;27993;45.392;10.918;2023-11-21T01:52:06;17.65;;;12.05;;
42338;SDS011;27993;45.392;10.918;2023-11-21T01:54:37;17.87;;;11.70;;
42338;SDS011;27993;45.392;10.918;2023-11-21T01:57:08;21.42;;;12.02;;
42338;SDS011;27993;45.392;10.918;2023-11-21T01:59:40;17.27;;;10.93;;
42338;SDS011;27993;45.392;10.918;2023-11-21T02:02:12;16.58;;;11.40;;
42338;SDS011;27993;45.392;10.918;2023-11-21T02:04:43;22.70;;;12.55;;
42338;SDS011;27993;45.392;10.918;2023-11-21T02:07:14;19.37;;;10.68;;
42338;SDS011;27993;45.392;10.918;2023-11-21T02:09:45;19.80;;;11.45;;
42338;SDS011;27993;45.392;10.918;2023-11-21T02:12:16;17.52;;;10.52;;
42338;SDS011;27993;45.392;10.918;2023-11-21T02:14:47;16.55;;;11.82;;
42338;SDS011;27993;45.392;10.918;2023-11-21T02:17:18;22.13;;;12.15;;
42338;SDS011;27993;45.392;10.918;2023-11-21T02:19:49;20.90;;;11.07;;
42338;SDS011;27993;45.392;10.918;2023-11-21T02:22:21;17.83;;;11.27;;
42338;SDS011;27993;45.392;10.918;2023-11-21T02:24:55;20.92;;;12.07;;
42338;SDS011;27993;45.392;10.918;2023-11-21T02:27:27;18.98;;;10.77;;
42338;SDS011;27993;45.392;10.918;2023-11-21T02:29:58;20.40;;;11.30;;
42338;SDS011;27993;45.392;10.918;2023-11-21T02:32:30;22.23;;;12.57;;
42338;SDS011;27993;45.392;10.918;2023-11-21T02:35:01;17.23;;;11.38;;
42338;SDS011;27993;45.392;10.918;2023-11-21T02:37:37;20.65;;;10.35;;
42338;SDS011;27993;45.392;10.918;2023-11-21T02:40:09;16.10;;;10.50;;
42338;SDS011;27993;45.392;10.918;2023-11-21T02:42:42;19.15;;;11.48;;
42338;SDS011;27993;45.392;10.918;2023-11-21T02:45:13;17.40;;;11.02;;
42338;SDS011;27993;45.392;10.918;2023-11-21T02:47:47;22.77;;;11.98;;
42338;SDS011;27993;45.392;10.918;2023-11-21T02:50:19;16.52;;;10.23;;
42338;SDS011;27993;45.392;10.918;2023-11-21T02:52:50;27.40;;;10.90;;
42338;SDS011;27993;45.392;10.918;2023-11-21T02:55:21;17.98;;;10.85;;
42338;SDS011;27993;45.392;10.918;2023-11-21T02:57:54;15.32;;;9.52;;
42338;SDS011;27993;45.392;10.918;2023-11-21T03:00:26;18.52;;;10.35;;
42338;SDS011;27993;45.392;10.918;2023-11-21T03:02:57;20.37;;;10.52;;
42338;SDS011;27993;45.392;10.918;2023-11-21T03:05:28;25.12;;;11.12;;
42338;SDS011;27993;45.392;10.918;2023-11-21T03:07:59;15.53;;;9.83;;
42338;SDS011;27993;45.392;10.918;2023-11-21T03:10:30;15.13;;;10.17;;
42338;SDS011;27993;45.392;10.918;2023-11-21T03:13:01;14.18;;;8.65;;
42338;SDS011;27993;45.392;10.918;2023-11-21T03:15:32;17.00;;;10.68;;
42338;SDS011;27993;45.392;10.918;2023-11-21T03:18:05;14.45;;;9.80;;
42338;SDS011;27993;45.392;10.918;2023-11-21T03:20:36;20.40;;;10.55;;
42338;SDS011;27993;45.392;10.918;2023-11-21T03:23:07;14.63;;;9.05;;
42338;SDS011;27993;45.392;10.918;2023-11-21T03:25:37;14.50;;;8.95;;
42338;SDS011;27993;45.392;10.918;2023-11-21T03:28:08;24.83;;;9.87;;
42338;SDS011;27993;45.392;10.918;2023-11-21T03:30:39;14.75;;;9.55;;
42338;SDS011;27993;45.392;10.918;2023-11-21T03:33:10;21.13;;;9.13;;
42338;SDS011;27993;45.392;10.918;2023-11-21T03:35:42;22.58;;;10.45;;
42338;SDS011;27993;45.392;10.918;2023-11-21T03:38:14;12.80;;;9.57;;
42338;SDS011;27993;45.392;10.918;2023-11-21T03:40:46;18.08;;;10.02;;
42338;SDS011;27993;45.392;10.918;2023-11-21T03:43:17;18.25;;;10.57;;
42338;SDS011;27993;45.392;10.918;2023-11-21T03:45:48;16.73;;;10.07;;
42338;SDS011;27993;45.392;10.918;2023-11-21T03:48:19;21.85;;;10.68;;
42338;SDS011;27993;45.392;10.918;2023-11-21T03:50:50;22.83;;;9.80;;
42338;SDS011;27993;45.392;10.918;2023-11-21T03:53:21;16.08;;;10.18;;
42338;SDS011;27993;45.392;10.918;2023-11-21T03:55:52;15.13;;;9.77;;
42338;SDS011;27993;45.392;10.918;2023-11-21T03:58:23;13.57;;;9.07;;
42338;SDS011;27993;45.392;10.918;2023-11-21T04:00:54;23.07;;;13.17;;
42338;SDS011;27993;45.392;10.918;2023-11-21T04:03:25;22.07;;;11.20;;
42338;SDS011;27993;45.392;10.918;2023-11-21T04:05:56;18.85;;;13.15;;
42338;SDS011;27993;45.392;10.918;2023-11-21T04:08:27;20.77;;;13.75;;
42338;SDS011;27993;45.392;10.918;2023-11-21T04:10:58;23.83;;;14.17;;
42338;SDS011;27993;45.392;10.918;2023-11-21T04:13:29;18.57;;;13.27;;
42338;SDS011;27993;45.392;10.918;2023-11-21T04:16:00;22.67;;;13.45;;
42338;SDS011;27993;45.392;10.918;2023-11-21T04:18:33;29.12;;;14.05;;
42338;SDS011;27993;45.392;10.918;2023-11-21T04:21:05;19.45;;;13.15;;
42338;SDS011;27993;45.392;10.918;2023-11-21T04:26:07;22.45;;;12.82;;
42338;SDS011;27993;45.392;10.918;2023-11-21T04:28:38;21.90;;;12.37;;
42338;SDS011;27993;45.392;10.918;2023-11-21T04:31:09;27.57;;;14.53;;
42338;SDS011;27993;45.392;10.918;2023-11-21T04:33:40;21.43;;;11.43;;
42338;SDS011;27993;45.392;10.918;2023-11-21T04:36:11;19.40;;;11.63;;
42338;SDS011;27993;45.392;10.918;2023-11-21T04:38:42;15.98;;;11.25;;
42338;SDS011;27993;45.392;10.918;2023-11-21T04:41:14;20.15;;;12.05;;
42338;SDS011;27993;45.392;10.918;2023-11-21T04:43:45;24.02;;;12.77;;
42338;SDS011;27993;45.392;10.918;2023-11-21T04:46:16;26.90;;;12.90;;
42338;SDS011;27993;45.392;10.918;2023-11-21T04:48:47;24.37;;;13.27;;
42338;SDS011;27993;45.392;10.918;2023-11-21T04:51:18;21.17;;;11.43;;
42338;SDS011;27993;45.392;10.918;2023-11-21T04:53:49;18.97;;;12.37;;
42338;SDS011;27993;45.392;10.918;2023-11-21T04:56:20;21.20;;;11.93;;
42338;SDS011;27993;45.392;10.918;2023-11-21T04:58:51;24.07;;;12.33;;
42338;SDS011;27993;45.392;10.918;2023-11-21T05:01:22;15.63;;;11.43;;
42338;SDS011;27993;45.392;10.918;2023-11-21T05:03:53;18.57;;;12.27;;
42338;SDS011;27993;45.392;10.918;2023-11-21T05:06:24;25.73;;;12.37;;
42338;SDS011;27993;45.392;10.918;2023-11-21T05:08:55;20.23;;;11.23;;
42338;SDS011;27993;45.392;10.918;2023-11-21T05:11:26;21.70;;;12.27;;
42338;SDS011;27993;45.392;10.918;2023-11-21T05:13:57;26.35;;;12.10;;
42338;SDS011;27993;45.392;10.918;2023-11-21T05:16:31;17.98;;;10.43;;
42338;SDS011;27993;45.392;10.918;2023-11-21T05:19:02;19.03;;;10.50;;
42338;SDS011;27993;45.392;10.918;2023-11-21T05:21:33;18.45;;;10.80;;
42338;SDS011;27993;45.392;10.918;2023-11-21T05:24:06;18.75;;;9.95;;
42338;SDS011;27993;45.392;10.918;2023-11-21T05:26:37;22.58;;;11.52;;
42338;SDS011;27993;45.392;10.918;2023-11-21T05:29:08;18.83;;;11.23;;
42338;SDS011;27993;45.392;10.918;2023-11-21T05:31:40;22.50;;;11.12;;
42338;SDS011;27993;45.392;10.918;2023-11-21T05:34:11;17.80;;;10.83;;
42338;SDS011;27993;45.392;10.918;2023-11-21T05:36:43;13.73;;;9.37;;
42338;SDS011;27993;45.392;10.918;2023-11-21T05:39:15;13.57;;;10.05;;
42338;SDS011;27993;45.392;10.918;2023-11-21T05:44:18;21.20;;;9.52;;
42338;SDS011;27993;45.392;10.918;2023-11-21T05:46:49;14.27;;;9.15;;
42338;SDS011;27993;45.392;10.918;2023-11-21T05:49:20;19.30;;;9.50;;
42338;SDS011;27993;45.392;10.918;2023-11-21T05:51:52;16.45;;;10.15;;
42338;SDS011;27993;45.392;10.918;2023-11-21T05:54:24;18.83;;;9.35;;
42338;SDS011;27993;45.392;10.918;2023-11-21T05:59:26;28.90;;;10.23;;
42338;SDS011;27993;45.392;10.918;2023-11-21T06:01:57;14.40;;;9.37;;
42338;SDS011;27993;45.392;10.918;2023-11-21T06:04:28;19.67;;;10.67;;
42338;SDS011;27993;45.392;10.918;2023-11-21T06:06:59;15.87;;;9.87;;
42338;SDS011;27993;45.392;10.918;2023-11-21T06:09:31;28.12;;;9.73;;
42338;SDS011;27993;45.392;10.918;2023-11-21T06:12:02;15.37;;;8.03;;
42338;SDS011;27993;45.392;10.918;2023-11-21T06:14:34;19.62;;;10.77;;
42338;SDS011;27993;45.392;10.918;2023-11-21T06:17:05;21.23;;;11.38;;
42338;SDS011;27993;45.392;10.918;2023-11-21T06:19:36;17.50;;;10.27;;
42338;SDS011;27993;45.392;10.918;2023-11-21T06:22:07;16.73;;;10.33;;
42338;SDS011;27993;45.392;10.918;2023-11-21T06:24:38;17.33;;;9.17;;
42338;SDS011;27993;45.392;10.918;2023-11-21T06:27:11;20.00;;;10.02;;
42338;SDS011;27993;45.392;10.918;2023-11-21T06:29:42;22.80;;;10.43;;
42338;SDS011;27993;45.392;10.918;2023-11-21T06:32:13;19.87;;;10.13;;
42338;SDS011;27993;45.392;10.918;2023-11-21T06:34:46;28.62;;;11.75;;
42338;SDS011;27993;45.392;10.918;2023-11-21T06:37:17;31.03;;;12.30;;
42338;SDS011;27993;45.392;10.918;2023-11-21T06:39:51;28.30;;;11.52;;
42338;SDS011;27993;45.392;10.918;2023-11-21T06:42:22;21.25;;;11.68;;
42338;SDS011;27993;45.392;10.918;2023-11-21T06:44:54;26.25;;;11.82;;
42338;SDS011;27993;45.392;10.918;2023-11-21T06:47:27;23.95;;;10.85;;
42338;SDS011;27993;45.392;10.918;2023-11-21T06:49:59;22.70;;;11.35;;
42338;SDS011;27993;45.392;10.918;2023-11-21T06:52:30;23.98;;;11.55;;
42338;SDS011;27993;45.392;10.918;2023-11-21T06:55:01;18.27;;;10.83;;
42338;SDS011;27993;45.392;10.918;2023-11-21T06:57:33;25.27;;;10.07;;
42338;SDS011;27993;45.392;10.918;2023-11-21T07:00:04;20.23;;;10.40;;
42338;SDS011;27993;45.392;10.918;2023-11-21T07:02:37;18.52;;;9.80;;
42338;SDS011;27993;45.392;10.918;2023-11-21T07:05:08;21.83;;;11.85;;
42338;SDS011;27993;45.392;10.918;2023-11-21T07:07:39;16.27;;;9.77;;
42338;SDS011;27993;45.392;10.918;2023-11-21T07:10:10;21.93;;;10.77;;
42338;SDS011;27993;45.392;10.918;2023-11-21T07:12:41;16.47;;;10.27;;
42338;SDS011;27993;45.392;10.918;2023-11-21T07:15:12;18.10;;;9.68;;
42338;SDS011;27993;45.392;10.918;2023-11-21T07:17:43;20.30;;;10.75;;
42338;SDS011;27993;45.392;10.918;2023-11-21T07:20:14;15.25;;;9.20;;
42338;SDS011;27993;45.392;10.918;2023-11-21T07:22:47;17.35;;;9.57;;
42338;SDS011;27993;45.392;10.918;2023-11-21T07:25:18;25.02;;;9.25;;
42338;SDS011;27993;45.392;10.918;2023-11-21T07:27:49;19.92;;;8.88;;
42338;SDS011;27993;45.392;10.918;2023-11-21T07:30:20;15.82;;;9.07;;
42338;SDS011;27993;45.392;10.918;2023-11-21T07:32:52;20.10;;;10.07;;
42338;SDS011;27993;45.392;10.918;2023-11-21T07:35:23;20.02;;;9.20;;
42338;SDS011;27993;45.392;10.918;2023-11-21T07:37:54;20.12;;;9.00;;
42338;SDS011;27993;45.392;10.918;2023-11-21T07:40:25;19.85;;;10.32;;
42338;SDS011;27993;45.392;10.918;2023-11-21T07:45:29;14.18;;;8.05;;
42338;SDS011;27993;45.392;10.918;2023-11-21T07:48:00;25.55;;;11.27;;
42338;SDS011;27993;45.392;10.918;2023-11-21T07:50:33;22.70;;;10.77;;
42338;SDS011;27993;45.392;10.918;2023-11-21T07:53:04;28.00;;;14.40;;
42338;SDS011;27993;45.392;10.918;2023-11-21T07:55:35;25.17;;;13.15;;
42338;SDS011;27993;45.392;10.918;2023-11-21T07:58:06;28.10;;;13.60;;
42338;SDS011;27993;45.392;10.918;2023-11-21T08:00:37;19.85;;;12.57;;
42338;SDS011;27993;45.392;10.918;2023-11-21T08:05:41;18.23;;;10.80;;
42338;SDS011;27993;45.392;10.918;2023-11-21T08:08:12;23.75;;;13.02;;
42338;SDS011;27993;45.392;10.918;2023-11-21T08:10:44;23.42;;;12.27;;
42338;SDS011;27993;45.392;10.918;2023-11-21T08:13:18;18.50;;;10.73;;
42338;SDS011;27993;45.392;10.918;2023-11-21T08:15:49;19.77;;;11.05;;
42338;SDS011;27993;45.392;10.918;2023-11-21T08:18:20;20.10;;;10.38;;
42338;SDS011;27993;45.392;10.918;2023-11-21T08:20:51;17.35;;;9.73;;
42338;SDS011;27993;45.392;10.918;2023-11-21T08:23:25;18.98;;;9.68;;
42338;SDS011;27993;45.392;10.918;2023-11-21T08:25:56;17.58;;;10.27;;
42338;SDS011;27993;45.392;10.918;2023-11-21T08:28:27;21.20;;;10.90;;
42338;SDS011;27993;45.392;10.918;2023-11-21T08:30:58;21.73;;;9.27;;
42338;SDS011;27993;45.392;10.918;2023-11-21T08:33:29;17.10;;;7.68;;
42338;SDS011;27993;45.392;10.918;2023-11-21T08:36:00;18.17;;;8.68;;
42338;SDS011;27993;45.392;10.918;2023-11-21T08:38:31;19.00;;;8.50;;
42338;SDS011;27993;45.392;10.918;2023-11-21T08:41:03;12.85;;;8.10;;
42338;SDS011;27993;45.392;10.918;2023-11-21T08:43:34;13.75;;;7.62;;
42338;SDS011;27993;45.392;10.918;2023-11-21T08:46:09;13.43;;;7.85;;
42338;SDS011;27993;45.392;10.918;2023-11-21T08:48:40;21.05;;;8.10;;
42338;SDS011;27993;45.392;10.918;2023-11-21T08:51:13;13.95;;;8.65;;
42338;SDS011;27993;45.392;10.918;2023-11-21T08:53:44;17.73;;;8.45;;
42338;SDS011;27993;45.392;10.918;2023-11-21T08:56:15;10.75;;;7.43;;
42338;SDS011;27993;45.392;10.918;2023-11-21T08:58:48;15.77;;;6.85;;
42338;SDS011;27993;45.392;10.918;2023-11-21T09:01:20;14.87;;;6.95;;
42338;SDS011;27993;45.392;10.918;2023-11-21T09:03:51;13.07;;;6.53;;
42338;SDS011;27993;45.392;10.918;2023-11-21T09:06:22;13.43;;;6.45;;
42338;SDS011;27993;45.392;10.918;2023-11-21T09:08:54;11.82;;;6.40;;
42338;SDS011;27993;45.392;10.918;2023-11-21T09:11:25;12.20;;;6.10;;
42338;SDS011;27993;45.392;10.918;2023-11-21T09:14:01;11.45;;;6.25;;
42338;SDS011;27993;45.392;10.918;2023-11-21T09:16:33;8.80;;;6.68;;
42338;SDS011;27993;45.392;10.918;2023-11-21T09:19:04;11.60;;;5.87;;
42338;SDS011;27993;45.392;10.918;2023-11-21T09:21:35;12.95;;;6.82;;
42338;SDS011;27993;45.392;10.918;2023-11-21T09:24:06;11.27;;;7.18;;
42338;SDS011;27993;45.392;10.918;2023-11-21T09:26:39;7.62;;;5.62;;
42338;SDS011;27993;45.392;10.918;2023-11-21T09:29:10;11.77;;;6.40;;
42338;SDS011;27993;45.392;10.918;2023-11-21T09:31:41;10.65;;;6.22;;
42338;SDS011;27993;45.392;10.918;2023-11-21T09:34:14;7.95;;;5.43;;
42338;SDS011;27993;45.392;10.918;2023-11-21T09:36:45;10.40;;;6.35;;
42338;SDS011;27993;45.392;10.918;2023-11-21T09:39:16;13.15;;;5.78;;
42338;SDS011;27993;45.392;10.918;2023-11-21T09:47:13;30.12;;;9.48;;
42338;SDS011;27993;45.392;10.918;2023-11-21T09:49:47;21.48;;;9.23;;
42338;SDS011;27993;45.392;10.918;2023-11-21T09:52:24;11.02;;;6.87;;
42338;SDS011;27993;45.392;10.918;2023-11-21T09:54:55;12.75;;;7.50;;
42338;SDS011;27993;45.392;10.918;2023-11-21T09:57:30;21.42;;;6.60;;
42338;SDS011;27993;45.392;10.918;2023-11-21T10:00:01;10.82;;;6.65;;
42338;SDS011;27993;45.392;10.918;2023-11-21T10:02:35;13.60;;;6.70;;
42338;SDS011;27993;45.392;10.918;2023-11-21T10:05:07;9.00;;;6.65;;
42338;SDS011;27993;45.392;10.918;2023-11-21T10:07:41;13.02;;;5.95;;
42338;SDS011;27993;45.392;10.918;2023-11-21T10:10:14;19.85;;;9.07;;
42338;SDS011;27993;45.392;10.918;2023-11-21T10:12:48;16.90;;;9.18;;
42338;SDS011;27993;45.392;10.918;2023-11-21T10:15:23;12.25;;;7.35;;
42338;SDS011;27993;45.392;10.918;2023-11-21T10:17:57;14.27;;;8.13;;
42338;SDS011;27993;45.392;10.918;2023-11-21T10:20:28;11.12;;;7.37;;
42338;SDS011;27993;45.392;10.918;2023-11-21T10:23:00;16.55;;;7.87;;
42338;SDS011;27993;45.392;10.918;2023-11-21T10:25:37;17.55;;;9.90;;
42338;SDS011;27993;45.392;10.918;2023-11-21T10:28:08;12.93;;;8.52;;
42338;SDS011;27993;45.392;10.918;2023-11-21T10:30:40;14.85;;;9.43;;
42338;SDS011;27993;45.392;10.918;2023-11-21T10:33:11;18.12;;;8.38;;
42338;SDS011;27993;45.392;10.918;2023-11-21T10:35:46;15.60;;;8.60;;
42338;SDS011;27993;45.392;10.918;2023-11-21T10:38:20;12.07;;;8.55;;
42338;SDS011;27993;45.392;10.918;2023-11-21T10:40:54;16.65;;;7.90;;
42338;SDS011;27993;45.392;10.918;2023-11-21T10:43:25;16.60;;;9.40;;
42338;SDS011;27993;45.392;10.918;2023-11-21T10:45:57;14.10;;;8.63;;
42338;SDS011;27993;45.392;10.918;2023-11-21T10:48:29;16.73;;;9.38;;
42338;SDS011;27993;45.392;10.918;2023-11-21T10:51:07;17.23;;;8.70;;
42338;SDS011;27993;45.392;10.918;2023-11-21T10:53:39;15.40;;;9.63;;
42338;SDS011;27993;45.392;10.918;2023-11-21T10:56:12;17.70;;;8.55;;
42338;SDS011;27993;45.392;10.918;2023-11-21T10:58:50;15.32;;;9.45;;
42338;SDS011;27993;45.392;10.918;2023-11-21T11:01:22;17.30;;;9.10;;
42338;SDS011;27993;45.392;10.918;2023-11-21T11:03:56;18.92;;;9.73;;
42338;SDS011;27993;45.392;10.918;2023-11-21T11:06:27;20.75;;;9.70;;
42338;SDS011;27993;45.392;10.918;2023-11-21T11:08:59;30.12;;;11.45;;
42338;SDS011;27993;45.392;10.918;2023-11-21T11:11:32;17.62;;;10.90;;
42338;SDS011;27993;45.392;10.918;2023-11-21T11:14:03;16.12;;;10.10;;
42338;SDS011;27993;45.392;10.918;2023-11-21T11:16:35;30.92;;;10.55;;
42338;SDS011;27993;45.392;10.918;2023-11-21T11:19:07;19.05;;;10.18;;
42338;SDS011;27993;45.392;10.918;2023-11-21T11:24:23;17.60;;;10.27;;
42338;SDS011;27993;45.392;10.918;2023-11-21T11:34:47;11.40;;;5.90;;
42338;SDS011;27993;45.392;10.918;2023-11-21T11:37:21;29.37;;;12.77;;
42338;SDS011;27993;45.392;10.918;2023-11-21T11:39:53;27.33;;;13.43;;
42338;SDS011;27993;45.392;10.918;2023-11-21T11:44:56;27.90;;;13.18;;
42338;SDS011;27993;45.392;10.918;2023-11-21T11:47:29;22.85;;;13.25;;
42338;SDS011;27993;45.392;10.918;2023-11-21T11:50:06;20.12;;;12.80;;
42338;SDS011;27993;45.392;10.918;2023-11-21T11:52:41;24.33;;;14.65;;
42338;SDS011;27993;45.392;10.918;2023-11-21T11:55:13;22.48;;;12.65;;
42338;SDS011;27993;45.392;10.918;2023-11-21T11:57:49;34.83;;;14.00;;
42338;SDS011;27993;45.392;10.918;2023-11-21T12:02:55;28.23;;;14.13;;
42338;SDS011;27993;45.392;10.918;2023-11-21T12:05:32;30.37;;;12.88;;
42338;SDS011;27993;45.392;10.918;2023-11-21T12:08:06;27.42;;;13.25;;
42338;SDS011;27993;45.392;10.918;2023-11-21T12:10:37;22.77;;;12.15;;
42338;SDS011;27993;45.392;10.918;2023-11-21T12:13:10;22.62;;;12.65;;
42338;SDS011;27993;45.392;10.918;2023-11-21T12:15:42;24.98;;;14.98;;
42338;SDS011;27993;45.392;10.918;2023-11-21T12:18:15;29.80;;;14.07;;
42338;SDS011;27993;45.392;10.918;2023-11-21T12:20:46;25.10;;;14.27;;
42338;SDS011;27993;45.392;10.918;2023-11-21T12:23:20;25.55;;;13.43;;
42338;SDS011;27993;45.392;10.918;2023-11-21T12:25:51;27.70;;;14.48;;
42338;SDS011;27993;45.392;10.918;2023-11-21T12:28:22;32.47;;;16.37;;
42338;SDS011;27993;45.392;10.918;2023-11-21T12:30:53;23.75;;;14.20;;
42338;SDS011;27993;45.392;10.918;2023-11-21T12:33:24;21.42;;;13.35;;
42338;SDS011;27993;45.392;10.918;2023-11-21T12:35:55;27.02;;;13.38;;
42338;SDS011;27993;45.392;10.918;2023-11-21T12:40:58;20.17;;;11.68;;
42338;SDS011;27993;45.392;10.918;2023-11-21T12:43:30;16.23;;;10.15;;
42338;SDS011;27993;45.392;10.918;2023-11-21T12:46:08;18.05;;;9.90;;
42338;SDS011;27993;45.392;10.918;2023-11-21T12:48:39;18.73;;;10.43;;
42338;SDS011;27993;45.392;10.918;2023-11-21T12:51:12;18.35;;;9.38;;
42338;SDS011;27993;45.392;10.918;2023-11-21T12:53:48;24.85;;;11.15;;
42338;SDS011;27993;45.392;10.918;2023-11-21T12:56:21;21.30;;;11.95;;
42338;SDS011;27993;45.392;10.918;2023-11-21T12:58:55;26.20;;;12.68;;
42338;SDS011;27993;45.392;10.918;2023-11-21T13:01:27;21.27;;;10.15;;
42338;SDS011;27993;45.392;10.918;2023-11-21T13:03:59;23.20;;;10.68;;
42338;SDS011;27993;45.392;10.918;2023-11-21T13:06:32;14.30;;;7.07;;
42338;SDS011;27993;45.392;10.918;2023-11-21T13:09:08;13.98;;;7.95;;
42338;SDS011;27993;45.392;10.918;2023-11-21T13:11:40;15.45;;;7.10;;
42338;SDS011;27993;45.392;10.918;2023-11-21T13:14:11;14.98;;;7.87;;
42338;SDS011;27993;45.392;10.918;2023-11-21T13:16:42;15.70;;;8.48;;
42338;SDS011;27993;45.392;10.918;2023-11-21T13:19:16;13.38;;;7.90;;
42338;SDS011;27993;45.392;10.918;2023-11-21T13:21:47;18.73;;;7.47;;
42338;SDS011;27993;45.392;10.918;2023-11-21T13:24:18;13.30;;;8.55;;
42338;SDS011;27993;45.392;10.918;2023-11-21T13:26:49;16.00;;;8.68;;
42338;SDS011;27993;45.392;10.918;2023-11-21T13:29:21;15.23;;;8.75;;
42338;SDS011;27993;45.392;10.918;2023-11-21T13:31:53;13.55;;;8.50;;
42338;SDS011;27993;45.392;10.918;2023-11-21T13:34:25;30.90;;;9.45;;
42338;SDS011;27993;45.392;10.918;2023-11-21T13:36:57;25.50;;;10.95;;
42338;SDS011;27993;45.392;10.918;2023-11-21T13:39:30;16.37;;;8.98;;
42338;SDS011;27993;45.392;10.918;2023-11-21T13:42:02;18.67;;;9.38;;
42338;SDS011;27993;45.392;10.918;2023-11-21T13:44:33;13.62;;;7.82;;
42338;SDS011;27993;45.392;10.918;2023-11-21T13:47:08;13.43;;;7.72;;
42338;SDS011;27993;45.392;10.918;2023-11-21T13:49:39;15.82;;;9.32;;
42338;SDS011;27993;45.392;10.918;2023-11-21T13:52:12;15.73;;;9.68;;
42338;SDS011;27993;45.392;10.918;2023-11-21T13:54:46;9.48;;;5.75;;
42338;SDS011;27993;45.392;10.918;2023-11-21T13:57:17;13.77;;;7.53;;
42338;SDS011;27993;45.392;10.918;2023-11-21T13:59:50;9.77;;;6.15;;
42338;SDS011;27993;45.392;10.918;2023-11-21T14:05:02;8.45;;;4.97;;
42338;SDS011;27993;45.392;10.918;2023-11-21T14:07:39;11.15;;;5.18;;
42338;SDS011;27993;45.392;10.918;2023-11-21T14:10:17;12.57;;;5.28;;
42338;SDS011;27993;45.392;10.918;2023-11-21T14:12:52;10.70;;;5.60;;
42338;SDS011;27993;45.392;10.918;2023-11-21T14:15:23;9.13;;;4.93;;
42338;SDS011;27993;45.392;10.918;2023-11-21T14:17:54;8.25;;;4.40;;
42338;SDS011;27993;45.392;10.918;2023-11-21T14:20:25;9.02;;;5.28;;
42338;SDS011;27993;45.392;10.918;2023-11-21T14:22:56;8.82;;;4.68;;
42338;SDS011;27993;45.392;10.918;2023-11-21T14:25:27;8.27;;;4.60;;
42338;SDS011;27993;45.392;10.918;2023-11-21T14:27:58;7.55;;;4.40;;
42338;SDS011;27993;45.392;10.918;2023-11-21T14:30:29;8.93;;;4.85;;
42338;SDS011;27993;45.392;10.918;2023-11-21T14:33:05;8.93;;;5.28;;
42338;SDS011;27993;45.392;10.918;2023-11-21T14:35:38;7.43;;;3.65;;
42338;SDS011;27993;45.392;10.918;2023-11-21T14:38:10;7.28;;;4.35;;
42338;SDS011;27993;45.392;10.918;2023-11-21T14:40:41;6.95;;;3.72;;
42338;SDS011;27993;45.392;10.918;2023-11-21T14:43:12;6.37;;;3.10;;
42338;SDS011;27993;45.392;10.918;2023-11-21T14:45:43;6.85;;;3.53;;
42338;SDS011;27993;45.392;10.918;2023-11-21T14:48:14;6.93;;;3.30;;
42338;SDS011;27993;45.392;10.918;2023-11-21T14:50:46;11.50;;;4.05;;
42338;SDS011;27993;45.392;10.918;2023-11-21T14:53:39;6.50;;;3.85;;
42338;SDS011;27993;45.392;10.918;2023-11-21T14:56:23;15.98;;;3.47;;
42338;SDS011;27993;45.392;10.918;2023-11-21T14:59:00;10.70;;;3.55;;
42338;SDS011;27993;45.392;10.918;2023-11-21T15:01:35;10.57;;;3.53;;
42338;SDS011;27993;45.392;10.918;2023-11-21T15:04:25;4.37;;;2.55;;
42338;SDS011;27993;45.392;10.918;2023-11-21T15:07:06;5.50;;;2.78;;
42338;SDS011;27993;45.392;10.918;2023-11-21T15:09:37;5.20;;;2.75;;
42338;SDS011;27993;45.392;10.918;2023-11-21T15:12:11;4.65;;;2.65;;
42338;SDS011;27993;45.392;10.918;2023-11-21T15:14:47;3.25;;;1.75;;
42338;SDS011;27993;45.392;10.918;2023-11-21T15:17:19;11.20;;;2.28;;
42338;SDS011;27993;45.392;10.918;2023-11-21T15:19:59;4.57;;;2.03;;
42338;SDS011;27993;45.392;10.918;2023-11-21T15:22:30;6.75;;;1.98;;
42338;SDS011;27993;45.392;10.918;2023-11-21T15:25:01;10.85;;;3.22;;
42338;SDS011;27993;45.392;10.918;2023-11-21T15:27:37;7.20;;;2.60;;
42338;SDS011;27993;45.392;10.918;2023-11-21T15:30:09;6.05;;;2.45;;